sensor_id;sensor_type;location;lat;lon;timestamp;P1;durP1;ratioP1;P2;durP2;ratioP2
66607;SDS011;53462;39.616;8.824;2023-02-25T00:00:31;28.17;;;6.18;;
66607;SDS011;53462;39.616;8.824;2023-02-25T00:02:58;23.50;;;6.00;;
66607;SDS011;53462;39.616;8.824;2023-02-25T00:05:25;16.67;;;5.50;;
66607;SDS011;53462;39.616;8.824;2023-02-25T00:07:52;16.38;;;4.40;;
66607;SDS011;53462;39.616;8.824;2023-02-25T00:10:18;17.67;;;5.20;;
66607;SDS011;53462;39.616;8.824;2023-02-25T00:12:44;24.88;;;5.07;;
66607;SDS011;53462;39.616;8.824;2023-02-25T00:15:10;27.38;;;5.20;;
66607;SDS011;53462;39.616;8.824;2023-02-25T00:17:37;28.63;;;5.57;;
66607;SDS011;53462;39.616;8.824;2023-02-25T00:20:05;19.75;;;4.68;;
66607;SDS011;53462;39.616;8.824;2023-02-25T00:22:34;18.83;;;4.10;;
66607;SDS011;53462;39.616;8.824;2023-02-25T00:25:00;25.85;;;4.72;;
66607;SDS011;53462;39.616;8.824;2023-02-25T00:27:26;22.73;;;5.13;;
66607;SDS011;53462;39.616;8.824;2023-02-25T00:29:53;21.13;;;4.95;;
66607;SDS011;53462;39.616;8.824;2023-02-25T00:32:21;29.48;;;5.18;;
66607;SDS011;53462;39.616;8.824;2023-02-25T00:34:47;20.15;;;4.38;;
66607;SDS011;53462;39.616;8.824;2023-02-25T00:37:13;23.98;;;4.50;;
66607;SDS011;53462;39.616;8.824;2023-02-25T00:39:39;21.63;;;5.05;;
66607;SDS011;53462;39.616;8.824;2023-02-25T00:42:12;21.50;;;4.80;;
66607;SDS011;53462;39.616;8.824;2023-02-25T00:44:46;23.40;;;5.43;;
66607;SDS011;53462;39.616;8.824;2023-02-25T00:47:16;22.13;;;4.45;;
66607;SDS011;53462;39.616;8.824;2023-02-25T00:49:44;17.30;;;4.15;;
66607;SDS011;53462;39.616;8.824;2023-02-25T00:52:11;22.23;;;4.53;;
66607;SDS011;53462;39.616;8.824;2023-02-25T00:54:38;20.10;;;4.70;;
66607;SDS011;53462;39.616;8.824;2023-02-25T00:57:04;18.27;;;4.82;;
66607;SDS011;53462;39.616;8.824;2023-02-25T00:59:31;26.60;;;5.80;;
66607;SDS011;53462;39.616;8.824;2023-02-25T01:01:57;20.35;;;5.65;;
66607;SDS011;53462;39.616;8.824;2023-02-25T01:04:23;26.20;;;4.97;;
66607;SDS011;53462;39.616;8.824;2023-02-25T01:06:49;22.75;;;5.30;;
66607;SDS011;53462;39.616;8.824;2023-02-25T01:09:15;20.45;;;4.85;;
66607;SDS011;53462;39.616;8.824;2023-02-25T01:11:42;21.38;;;4.80;;
66607;SDS011;53462;39.616;8.824;2023-02-25T01:14:11;19.38;;;4.63;;
66607;SDS011;53462;39.616;8.824;2023-02-25T01:16:39;21.65;;;4.88;;
66607;SDS011;53462;39.616;8.824;2023-02-25T01:19:11;21.90;;;4.68;;
66607;SDS011;53462;39.616;8.824;2023-02-25T01:21:40;27.13;;;5.57;;
66607;SDS011;53462;39.616;8.824;2023-02-25T01:26:42;29.85;;;4.90;;
66607;SDS011;53462;39.616;8.824;2023-02-25T01:29:12;22.02;;;4.72;;
66607;SDS011;53462;39.616;8.824;2023-02-25T01:31:42;27.98;;;4.88;;
66607;SDS011;53462;39.616;8.824;2023-02-25T01:34:09;20.52;;;4.72;;
66607;SDS011;53462;39.616;8.824;2023-02-25T01:36:39;25.45;;;4.88;;
66607;SDS011;53462;39.616;8.824;2023-02-25T01:39:06;27.02;;;4.88;;
66607;SDS011;53462;39.616;8.824;2023-02-25T01:41:32;26.73;;;4.50;;
66607;SDS011;53462;39.616;8.824;2023-02-25T01:46:35;20.17;;;4.30;;
66607;SDS011;53462;39.616;8.824;2023-02-25T01:49:02;31.08;;;4.72;;
66607;SDS011;53462;39.616;8.824;2023-02-25T01:51:55;21.52;;;4.40;;
66607;SDS011;53462;39.616;8.824;2023-02-25T01:54:44;18.38;;;5.38;;
66607;SDS011;53462;39.616;8.824;2023-02-25T01:57:14;24.70;;;5.80;;
66607;SDS011;53462;39.616;8.824;2023-02-25T01:59:42;22.48;;;5.68;;
66607;SDS011;53462;39.616;8.824;2023-02-25T02:02:10;22.38;;;6.47;;
66607;SDS011;53462;39.616;8.824;2023-02-25T02:04:38;23.55;;;6.35;;
66607;SDS011;53462;39.616;8.824;2023-02-25T02:07:07;27.35;;;7.07;;
66607;SDS011;53462;39.616;8.824;2023-02-25T02:09:33;23.95;;;8.13;;
66607;SDS011;53462;39.616;8.824;2023-02-25T02:12:00;24.33;;;7.30;;
66607;SDS011;53462;39.616;8.824;2023-02-25T02:14:38;24.08;;;7.82;;
66607;SDS011;53462;39.616;8.824;2023-02-25T02:19:42;22.17;;;7.13;;
66607;SDS011;53462;39.616;8.824;2023-02-25T02:24:54;20.30;;;6.95;;
66607;SDS011;53462;39.616;8.824;2023-02-25T02:27:59;25.17;;;5.95;;
66607;SDS011;53462;39.616;8.824;2023-02-25T02:37:11;23.77;;;5.75;;
66607;SDS011;53462;39.616;8.824;2023-02-25T02:39:27;18.15;;;5.32;;
66607;SDS011;53462;39.616;8.824;2023-02-25T02:44:30;20.52;;;5.15;;
66607;SDS011;53462;39.616;8.824;2023-02-25T02:47:14;23.70;;;5.63;;
66607;SDS011;53462;39.616;8.824;2023-02-25T02:52:41;20.27;;;7.43;;
66607;SDS011;53462;39.616;8.824;2023-02-25T02:55:16;31.52;;;9.15;;
66607;SDS011;53462;39.616;8.824;2023-02-25T02:57:53;22.05;;;6.38;;
66607;SDS011;53462;39.616;8.824;2023-02-25T03:00:24;23.25;;;5.60;;
66607;SDS011;53462;39.616;8.824;2023-02-25T03:02:56;26.83;;;6.20;;
66607;SDS011;53462;39.616;8.824;2023-02-25T03:05:26;27.98;;;6.22;;
66607;SDS011;53462;39.616;8.824;2023-02-25T03:08:15;16.58;;;5.25;;
66607;SDS011;53462;39.616;8.824;2023-02-25T03:10:55;21.60;;;5.35;;
66607;SDS011;53462;39.616;8.824;2023-02-25T03:13:20;20.05;;;5.18;;
66607;SDS011;53462;39.616;8.824;2023-02-25T03:15:47;23.35;;;5.35;;
66607;SDS011;53462;39.616;8.824;2023-02-25T03:18:21;24.40;;;6.15;;
66607;SDS011;53462;39.616;8.824;2023-02-25T03:21:17;21.67;;;7.32;;
66607;SDS011;53462;39.616;8.824;2023-02-25T03:23:45;21.60;;;8.00;;
66607;SDS011;53462;39.616;8.824;2023-02-25T03:26:29;26.50;;;8.70;;
66607;SDS011;53462;39.616;8.824;2023-02-25T03:29:02;23.38;;;8.27;;
66607;SDS011;53462;39.616;8.824;2023-02-25T03:31:37;18.77;;;7.32;;
66607;SDS011;53462;39.616;8.824;2023-02-25T03:34:15;20.55;;;7.05;;
66607;SDS011;53462;39.616;8.824;2023-02-25T03:36:50;25.65;;;7.80;;
66607;SDS011;53462;39.616;8.824;2023-02-25T03:39:23;26.20;;;7.30;;
66607;SDS011;53462;39.616;8.824;2023-02-25T03:41:53;22.30;;;7.18;;
66607;SDS011;53462;39.616;8.824;2023-02-25T03:44:32;20.63;;;7.32;;
66607;SDS011;53462;39.616;8.824;2023-02-25T03:47:03;21.50;;;6.88;;
66607;SDS011;53462;39.616;8.824;2023-02-25T03:49:32;20.38;;;5.97;;
66607;SDS011;53462;39.616;8.824;2023-02-25T03:52:03;20.08;;;7.53;;
66607;SDS011;53462;39.616;8.824;2023-02-25T03:54:33;18.33;;;6.10;;
66607;SDS011;53462;39.616;8.824;2023-02-25T03:56:59;20.85;;;6.03;;
66607;SDS011;53462;39.616;8.824;2023-02-25T03:59:26;31.13;;;7.00;;
66607;SDS011;53462;39.616;8.824;2023-02-25T04:01:52;23.30;;;6.82;;
66607;SDS011;53462;39.616;8.824;2023-02-25T04:04:20;22.63;;;6.28;;
66607;SDS011;53462;39.616;8.824;2023-02-25T04:06:46;30.27;;;6.78;;
66607;SDS011;53462;39.616;8.824;2023-02-25T04:09:12;25.77;;;7.38;;
66607;SDS011;53462;39.616;8.824;2023-02-25T04:11:39;22.33;;;7.95;;
66607;SDS011;53462;39.616;8.824;2023-02-25T04:14:06;29.85;;;7.38;;
66607;SDS011;53462;39.616;8.824;2023-02-25T04:16:32;20.63;;;7.18;;
66607;SDS011;53462;39.616;8.824;2023-02-25T04:18:58;27.65;;;7.45;;
66607;SDS011;53462;39.616;8.824;2023-02-25T04:23:55;27.05;;;7.00;;
66607;SDS011;53462;39.616;8.824;2023-02-25T04:26:22;25.90;;;7.25;;
66607;SDS011;53462;39.616;8.824;2023-02-25T04:28:48;24.45;;;7.22;;
66607;SDS011;53462;39.616;8.824;2023-02-25T04:31:14;19.50;;;6.80;;
66607;SDS011;53462;39.616;8.824;2023-02-25T04:33:40;24.23;;;6.60;;
66607;SDS011;53462;39.616;8.824;2023-02-25T04:36:20;20.55;;;6.57;;
66607;SDS011;53462;39.616;8.824;2023-02-25T04:38:58;21.73;;;6.20;;
66607;SDS011;53462;39.616;8.824;2023-02-25T04:41:27;20.65;;;5.63;;
66607;SDS011;53462;39.616;8.824;2023-02-25T04:43:58;22.83;;;5.68;;
66607;SDS011;53462;39.616;8.824;2023-02-25T04:46:24;17.08;;;4.82;;
66607;SDS011;53462;39.616;8.824;2023-02-25T04:48:51;25.17;;;4.70;;
66607;SDS011;53462;39.616;8.824;2023-02-25T04:51:16;18.75;;;3.70;;
66607;SDS011;53462;39.616;8.824;2023-02-25T04:53:42;19.15;;;3.80;;
66607;SDS011;53462;39.616;8.824;2023-02-25T04:56:10;20.02;;;3.80;;
66607;SDS011;53462;39.616;8.824;2023-02-25T04:58:37;20.10;;;3.75;;
66607;SDS011;53462;39.616;8.824;2023-02-25T05:01:04;19.02;;;5.10;;
66607;SDS011;53462;39.616;8.824;2023-02-25T05:03:33;14.38;;;4.68;;
66607;SDS011;53462;39.616;8.824;2023-02-25T05:06:00;29.73;;;5.18;;
66607;SDS011;53462;39.616;8.824;2023-02-25T05:08:27;25.98;;;4.53;;
66607;SDS011;53462;39.616;8.824;2023-02-25T05:10:54;17.38;;;4.78;;
66607;SDS011;53462;39.616;8.824;2023-02-25T05:13:20;15.50;;;4.78;;
66607;SDS011;53462;39.616;8.824;2023-02-25T05:15:46;21.10;;;4.50;;
66607;SDS011;53462;39.616;8.824;2023-02-25T05:18:12;22.90;;;4.97;;
66607;SDS011;53462;39.616;8.824;2023-02-25T05:20:42;18.67;;;4.45;;
66607;SDS011;53462;39.616;8.824;2023-02-25T05:23:09;15.30;;;4.15;;
66607;SDS011;53462;39.616;8.824;2023-02-25T05:25:36;17.38;;;4.35;;
66607;SDS011;53462;39.616;8.824;2023-02-25T05:28:06;14.18;;;3.95;;
66607;SDS011;53462;39.616;8.824;2023-02-25T05:30:32;17.90;;;5.03;;
66607;SDS011;53462;39.616;8.824;2023-02-25T05:32:58;23.23;;;5.13;;
66607;SDS011;53462;39.616;8.824;2023-02-25T05:35:24;22.35;;;4.25;;
66607;SDS011;53462;39.616;8.824;2023-02-25T05:37:50;24.75;;;4.35;;
66607;SDS011;53462;39.616;8.824;2023-02-25T05:40:16;15.57;;;4.40;;
66607;SDS011;53462;39.616;8.824;2023-02-25T05:42:42;18.27;;;4.32;;
66607;SDS011;53462;39.616;8.824;2023-02-25T05:45:10;25.95;;;4.72;;
66607;SDS011;53462;39.616;8.824;2023-02-25T05:47:36;15.90;;;3.67;;
66607;SDS011;53462;39.616;8.824;2023-02-25T05:50:02;19.63;;;4.35;;
66607;SDS011;53462;39.616;8.824;2023-02-25T05:52:28;12.70;;;3.40;;
66607;SDS011;53462;39.616;8.824;2023-02-25T05:54:54;13.00;;;3.50;;
66607;SDS011;53462;39.616;8.824;2023-02-25T05:57:20;13.85;;;2.80;;
66607;SDS011;53462;39.616;8.824;2023-02-25T05:59:48;22.52;;;3.85;;
66607;SDS011;53462;39.616;8.824;2023-02-25T06:02:14;15.90;;;3.13;;
66607;SDS011;53462;39.616;8.824;2023-02-25T06:04:40;9.70;;;2.70;;
66607;SDS011;53462;39.616;8.824;2023-02-25T06:07:06;18.48;;;3.70;;
66607;SDS011;53462;39.616;8.824;2023-02-25T06:09:32;12.77;;;3.00;;
66607;SDS011;53462;39.616;8.824;2023-02-25T06:11:59;13.98;;;3.60;;
66607;SDS011;53462;39.616;8.824;2023-02-25T06:14:25;17.08;;;3.55;;
66607;SDS011;53462;39.616;8.824;2023-02-25T06:16:51;14.85;;;3.08;;
66607;SDS011;53462;39.616;8.824;2023-02-25T06:19:21;17.25;;;5.30;;
66607;SDS011;53462;39.616;8.824;2023-02-25T06:21:51;24.63;;;5.93;;
66607;SDS011;53462;39.616;8.824;2023-02-25T06:24:19;20.52;;;6.20;;
66607;SDS011;53462;39.616;8.824;2023-02-25T06:26:46;20.13;;;5.25;;
66607;SDS011;53462;39.616;8.824;2023-02-25T06:29:12;18.88;;;4.65;;
66607;SDS011;53462;39.616;8.824;2023-02-25T06:31:38;19.00;;;4.82;;
66607;SDS011;53462;39.616;8.824;2023-02-25T06:34:04;17.77;;;3.97;;
66607;SDS011;53462;39.616;8.824;2023-02-25T06:36:30;15.95;;;4.00;;
66607;SDS011;53462;39.616;8.824;2023-02-25T06:38:57;17.98;;;4.18;;
66607;SDS011;53462;39.616;8.824;2023-02-25T06:41:23;15.70;;;4.53;;
66607;SDS011;53462;39.616;8.824;2023-02-25T06:43:49;15.32;;;4.10;;
66607;SDS011;53462;39.616;8.824;2023-02-25T06:46:17;18.30;;;5.30;;
66607;SDS011;53462;39.616;8.824;2023-02-25T06:48:47;20.80;;;4.80;;
66607;SDS011;53462;39.616;8.824;2023-02-25T06:51:13;19.15;;;5.22;;
66607;SDS011;53462;39.616;8.824;2023-02-25T06:53:40;22.85;;;4.53;;
66607;SDS011;53462;39.616;8.824;2023-02-25T06:56:08;11.82;;;4.07;;
66607;SDS011;53462;39.616;8.824;2023-02-25T06:58:36;19.98;;;3.83;;
66607;SDS011;53462;39.616;8.824;2023-02-25T07:01:09;18.40;;;3.00;;
66607;SDS011;53462;39.616;8.824;2023-02-25T07:03:37;12.25;;;3.60;;
66607;SDS011;53462;39.616;8.824;2023-02-25T07:06:04;15.75;;;3.10;;
66607;SDS011;53462;39.616;8.824;2023-02-25T07:08:31;17.02;;;3.97;;
66607;SDS011;53462;39.616;8.824;2023-02-25T07:11:13;18.95;;;3.40;;
66607;SDS011;53462;39.616;8.824;2023-02-25T07:13:39;19.17;;;4.47;;
66607;SDS011;53462;39.616;8.824;2023-02-25T07:16:07;12.65;;;3.63;;
66607;SDS011;53462;39.616;8.824;2023-02-25T07:18:34;13.68;;;4.35;;
66607;SDS011;53462;39.616;8.824;2023-02-25T07:21:00;12.05;;;2.97;;
66607;SDS011;53462;39.616;8.824;2023-02-25T07:23:26;12.70;;;3.70;;
66607;SDS011;53462;39.616;8.824;2023-02-25T07:25:52;19.70;;;7.43;;
66607;SDS011;53462;39.616;8.824;2023-02-25T07:28:18;18.90;;;5.53;;
66607;SDS011;53462;39.616;8.824;2023-02-25T07:30:44;16.50;;;5.10;;
66607;SDS011;53462;39.616;8.824;2023-02-25T07:33:10;19.23;;;3.55;;
66607;SDS011;53462;39.616;8.824;2023-02-25T07:35:36;14.85;;;5.25;;
66607;SDS011;53462;39.616;8.824;2023-02-25T07:38:02;13.05;;;5.10;;
66607;SDS011;53462;39.616;8.824;2023-02-25T07:40:28;21.42;;;4.55;;
66607;SDS011;53462;39.616;8.824;2023-02-25T07:42:54;14.13;;;5.00;;
66607;SDS011;53462;39.616;8.824;2023-02-25T07:45:20;18.42;;;4.43;;
66607;SDS011;53462;39.616;8.824;2023-02-25T07:47:47;13.63;;;4.45;;
66607;SDS011;53462;39.616;8.824;2023-02-25T07:50:13;16.33;;;4.43;;
66607;SDS011;53462;39.616;8.824;2023-02-25T07:52:38;14.55;;;4.40;;
66607;SDS011;53462;39.616;8.824;2023-02-25T07:55:05;22.20;;;6.07;;
66607;SDS011;53462;39.616;8.824;2023-02-25T07:57:31;16.00;;;5.60;;
66607;SDS011;53462;39.616;8.824;2023-02-25T07:59:57;21.67;;;6.63;;
66607;SDS011;53462;39.616;8.824;2023-02-25T08:02:24;24.45;;;7.18;;
66607;SDS011;53462;39.616;8.824;2023-02-25T08:04:50;19.10;;;5.40;;
66607;SDS011;53462;39.616;8.824;2023-02-25T08:07:16;21.75;;;6.07;;
66607;SDS011;53462;39.616;8.824;2023-02-25T08:09:42;17.15;;;4.00;;
66607;SDS011;53462;39.616;8.824;2023-02-25T08:12:09;12.90;;;4.38;;
66607;SDS011;53462;39.616;8.824;2023-02-25T08:14:36;21.35;;;7.05;;
66607;SDS011;53462;39.616;8.824;2023-02-25T08:17:02;18.95;;;5.15;;
66607;SDS011;53462;39.616;8.824;2023-02-25T08:19:28;22.08;;;6.78;;
66607;SDS011;53462;39.616;8.824;2023-02-25T08:21:54;18.45;;;7.03;;
66607;SDS011;53462;39.616;8.824;2023-02-25T08:24:21;22.67;;;8.60;;
66607;SDS011;53462;39.616;8.824;2023-02-25T08:26:47;15.80;;;6.63;;
66607;SDS011;53462;39.616;8.824;2023-02-25T08:29:13;18.05;;;6.15;;
66607;SDS011;53462;39.616;8.824;2023-02-25T08:31:39;21.30;;;7.65;;
66607;SDS011;53462;39.616;8.824;2023-02-25T08:34:05;20.75;;;8.20;;
66607;SDS011;53462;39.616;8.824;2023-02-25T08:36:31;23.67;;;10.57;;
66607;SDS011;53462;39.616;8.824;2023-02-25T08:38:58;31.38;;;15.55;;
66607;SDS011;53462;39.616;8.824;2023-02-25T08:41:25;18.77;;;8.10;;
66607;SDS011;53462;39.616;8.824;2023-02-25T08:43:53;17.25;;;5.78;;
66607;SDS011;53462;39.616;8.824;2023-02-25T08:46:21;18.40;;;6.15;;
66607;SDS011;53462;39.616;8.824;2023-02-25T08:48:48;20.08;;;6.72;;
66607;SDS011;53462;39.616;8.824;2023-02-25T08:51:15;28.52;;;8.48;;
66607;SDS011;53462;39.616;8.824;2023-02-25T08:53:41;22.95;;;8.95;;
66607;SDS011;53462;39.616;8.824;2023-02-25T08:56:08;27.65;;;12.48;;
66607;SDS011;53462;39.616;8.824;2023-02-25T08:58:36;24.17;;;9.07;;
66607;SDS011;53462;39.616;8.824;2023-02-25T09:01:06;21.33;;;7.20;;
66607;SDS011;53462;39.616;8.824;2023-02-25T09:03:39;21.30;;;6.90;;
66607;SDS011;53462;39.616;8.824;2023-02-25T09:06:15;17.05;;;5.90;;
66607;SDS011;53462;39.616;8.824;2023-02-25T09:08:41;25.63;;;7.13;;
66607;SDS011;53462;39.616;8.824;2023-02-25T09:11:07;16.63;;;4.35;;
66607;SDS011;53462;39.616;8.824;2023-02-25T09:13:33;15.63;;;3.78;;
66607;SDS011;53462;39.616;8.824;2023-02-25T09:15:59;17.70;;;5.35;;
66607;SDS011;53462;39.616;8.824;2023-02-25T09:18:26;17.70;;;7.47;;
66607;SDS011;53462;39.616;8.824;2023-02-25T09:20:52;22.30;;;6.10;;
66607;SDS011;53462;39.616;8.824;2023-02-25T09:23:18;16.45;;;5.90;;
66607;SDS011;53462;39.616;8.824;2023-02-25T09:25:44;25.00;;;7.18;;
66607;SDS011;53462;39.616;8.824;2023-02-25T09:28:11;31.42;;;10.73;;
66607;SDS011;53462;39.616;8.824;2023-02-25T09:30:37;30.73;;;11.75;;
66607;SDS011;53462;39.616;8.824;2023-02-25T09:33:03;28.02;;;11.15;;
66607;SDS011;53462;39.616;8.824;2023-02-25T09:35:29;19.40;;;9.30;;
66607;SDS011;53462;39.616;8.824;2023-02-25T09:37:56;20.90;;;7.68;;
66607;SDS011;53462;39.616;8.824;2023-02-25T09:40:23;28.38;;;8.00;;
66607;SDS011;53462;39.616;8.824;2023-02-25T09:45:43;19.90;;;6.40;;
66607;SDS011;53462;39.616;8.824;2023-02-25T09:48:15;19.00;;;6.70;;
66607;SDS011;53462;39.616;8.824;2023-02-25T09:50:47;21.27;;;6.40;;
66607;SDS011;53462;39.616;8.824;2023-02-25T09:53:50;21.73;;;6.47;;
66607;SDS011;53462;39.616;8.824;2023-02-25T09:56:15;18.23;;;6.28;;
66607;SDS011;53462;39.616;8.824;2023-02-25T09:58:47;23.67;;;7.45;;
66607;SDS011;53462;39.616;8.824;2023-02-25T10:01:23;25.73;;;8.63;;
66607;SDS011;53462;39.616;8.824;2023-02-25T10:09:07;28.98;;;11.77;;
66607;SDS011;53462;39.616;8.824;2023-02-25T10:14:54;27.27;;;11.82;;
66607;SDS011;53462;39.616;8.824;2023-02-25T10:20:57;23.90;;;10.95;;
66607;SDS011;53462;39.616;8.824;2023-02-25T10:26:19;30.70;;;9.05;;
66607;SDS011;53462;39.616;8.824;2023-02-25T10:28:49;25.58;;;10.23;;
66607;SDS011;53462;39.616;8.824;2023-02-25T10:31:27;28.02;;;9.57;;
66607;SDS011;53462;39.616;8.824;2023-02-25T10:33:56;34.15;;;10.02;;
66607;SDS011;53462;39.616;8.824;2023-02-25T10:36:35;23.75;;;10.10;;
66607;SDS011;53462;39.616;8.824;2023-02-25T10:39:07;23.15;;;7.85;;
66607;SDS011;53462;39.616;8.824;2023-02-25T10:41:35;26.80;;;9.32;;
66607;SDS011;53462;39.616;8.824;2023-02-25T10:44:01;44.08;;;24.23;;
66607;SDS011;53462;39.616;8.824;2023-02-25T10:46:28;166.50;;;87.07;;
66607;SDS011;53462;39.616;8.824;2023-02-25T10:49:16;146.30;;;92.88;;
66607;SDS011;53462;39.616;8.824;2023-02-25T10:54:30;76.45;;;44.85;;
66607;SDS011;53462;39.616;8.824;2023-02-25T10:57:06;55.58;;;28.85;;
66607;SDS011;53462;39.616;8.824;2023-02-25T10:59:37;32.90;;;15.80;;
66607;SDS011;53462;39.616;8.824;2023-02-25T11:02:18;36.00;;;14.82;;
66607;SDS011;53462;39.616;8.824;2023-02-25T11:04:55;41.30;;;23.05;;
66607;SDS011;53462;39.616;8.824;2023-02-25T11:10:14;36.65;;;12.95;;
66607;SDS011;53462;39.616;8.824;2023-02-25T11:12:51;52.58;;;22.08;;
66607;SDS011;53462;39.616;8.824;2023-02-25T11:15:35;93.53;;;49.30;;
66607;SDS011;53462;39.616;8.824;2023-02-25T11:20:28;88.00;;;43.90;;
66607;SDS011;53462;39.616;8.824;2023-02-25T11:22:59;53.53;;;26.80;;
66607;SDS011;53462;39.616;8.824;2023-02-25T11:25:34;40.75;;;13.18;;
66607;SDS011;53462;39.616;8.824;2023-02-25T11:28:17;34.42;;;13.23;;
66607;SDS011;53462;39.616;8.824;2023-02-25T11:30:46;29.55;;;12.00;;
66607;SDS011;53462;39.616;8.824;2023-02-25T11:33:31;29.58;;;11.82;;
66607;SDS011;53462;39.616;8.824;2023-02-25T11:36:00;16.75;;;5.88;;
66607;SDS011;53462;39.616;8.824;2023-02-25T11:38:27;29.63;;;8.15;;
66607;SDS011;53462;39.616;8.824;2023-02-25T11:40:59;21.33;;;7.05;;
66607;SDS011;53462;39.616;8.824;2023-02-25T11:43:26;29.30;;;8.35;;
66607;SDS011;53462;39.616;8.824;2023-02-25T11:46:00;32.15;;;12.02;;
66607;SDS011;53462;39.616;8.824;2023-02-25T12:03:21;46.50;;;19.45;;
66607;SDS011;53462;39.616;8.824;2023-02-25T12:08:34;28.10;;;13.73;;
66607;SDS011;53462;39.616;8.824;2023-02-25T12:53:07;15.40;;;4.03;;
66607;SDS011;53462;39.616;8.824;2023-02-25T12:58:39;14.68;;;4.72;;
66607;SDS011;53462;39.616;8.824;2023-02-25T13:06:29;21.17;;;5.13;;
66607;SDS011;53462;39.616;8.824;2023-02-25T13:09:09;20.25;;;5.43;;
66607;SDS011;53462;39.616;8.824;2023-02-25T13:14:17;17.17;;;5.10;;
66607;SDS011;53462;39.616;8.824;2023-02-25T13:28:38;21.27;;;4.47;;
66607;SDS011;53462;39.616;8.824;2023-02-25T13:42:16;16.23;;;5.32;;
66607;SDS011;53462;39.616;8.824;2023-02-25T13:53:31;14.82;;;4.80;;
66607;SDS011;53462;39.616;8.824;2023-02-25T13:56:31;26.42;;;6.95;;
66607;SDS011;53462;39.616;8.824;2023-02-25T14:05:40;19.15;;;5.60;;
66607;SDS011;53462;39.616;8.824;2023-02-25T14:10:51;24.10;;;8.13;;
66607;SDS011;53462;39.616;8.824;2023-02-25T14:14:11;33.00;;;10.40;;
66607;SDS011;53462;39.616;8.824;2023-02-25T14:16:39;21.65;;;7.97;;
66607;SDS011;53462;39.616;8.824;2023-02-25T14:24:39;18.45;;;5.85;;
66607;SDS011;53462;39.616;8.824;2023-02-25T14:44:02;19.70;;;7.18;;
66607;SDS011;53462;39.616;8.824;2023-02-25T14:46:35;22.50;;;7.88;;
66607;SDS011;53462;39.616;8.824;2023-02-25T14:49:19;24.95;;;9.60;;
66607;SDS011;53462;39.616;8.824;2023-02-25T14:52:08;26.13;;;14.45;;
66607;SDS011;53462;39.616;8.824;2023-02-25T15:11:38;31.58;;;8.38;;
66607;SDS011;53462;39.616;8.824;2023-02-25T15:19:55;21.50;;;7.50;;
66607;SDS011;53462;39.616;8.824;2023-02-25T15:22:29;24.48;;;7.78;;
66607;SDS011;53462;39.616;8.824;2023-02-25T15:27:45;17.30;;;7.93;;
66607;SDS011;53462;39.616;8.824;2023-02-25T15:30:19;24.10;;;8.30;;
66607;SDS011;53462;39.616;8.824;2023-02-25T15:35:53;21.70;;;8.52;;
66607;SDS011;53462;39.616;8.824;2023-02-25T15:38:37;26.75;;;7.55;;
66607;SDS011;53462;39.616;8.824;2023-02-25T15:46:24;25.42;;;6.10;;
66607;SDS011;53462;39.616;8.824;2023-02-25T15:51:59;22.75;;;6.78;;
66607;SDS011;53462;39.616;8.824;2023-02-25T15:56:53;20.45;;;5.78;;
66607;SDS011;53462;39.616;8.824;2023-02-25T16:02:29;24.10;;;7.72;;
66607;SDS011;53462;39.616;8.824;2023-02-25T16:05:00;20.73;;;7.40;;
66607;SDS011;53462;39.616;8.824;2023-02-25T16:07:36;22.40;;;8.63;;
66607;SDS011;53462;39.616;8.824;2023-02-25T16:10:17;28.05;;;8.90;;
66607;SDS011;53462;39.616;8.824;2023-02-25T16:12:51;26.90;;;8.10;;
66607;SDS011;53462;39.616;8.824;2023-02-25T16:15:32;20.52;;;9.25;;
66607;SDS011;53462;39.616;8.824;2023-02-25T16:18:13;25.35;;;9.45;;
66607;SDS011;53462;39.616;8.824;2023-02-25T16:23:14;45.03;;;14.57;;
66607;SDS011;53462;39.616;8.824;2023-02-25T16:25:45;23.10;;;8.20;;
66607;SDS011;53462;39.616;8.824;2023-02-25T16:33:51;32.25;;;10.75;;
66607;SDS011;53462;39.616;8.824;2023-02-25T16:41:38;26.80;;;11.57;;
66607;SDS011;53462;39.616;8.824;2023-02-25T16:44:06;24.17;;;9.32;;
66607;SDS011;53462;39.616;8.824;2023-02-25T16:46:33;29.30;;;10.40;;
66607;SDS011;53462;39.616;8.824;2023-02-25T16:49:02;43.63;;;17.02;;
66607;SDS011;53462;39.616;8.824;2023-02-25T16:51:41;42.38;;;17.85;;
66607;SDS011;53462;39.616;8.824;2023-02-25T16:54:13;21.38;;;9.38;;
66607;SDS011;53462;39.616;8.824;2023-02-25T16:56:47;22.25;;;11.68;;
66607;SDS011;53462;39.616;8.824;2023-02-25T16:59:19;33.95;;;14.27;;
66607;SDS011;53462;39.616;8.824;2023-02-25T17:01:54;27.60;;;12.43;;
66607;SDS011;53462;39.616;8.824;2023-02-25T17:04:32;33.47;;;15.02;;
66607;SDS011;53462;39.616;8.824;2023-02-25T17:07:05;45.10;;;22.65;;
66607;SDS011;53462;39.616;8.824;2023-02-25T17:09:56;39.95;;;21.90;;
66607;SDS011;53462;39.616;8.824;2023-02-25T17:17:47;30.58;;;12.98;;
66607;SDS011;53462;39.616;8.824;2023-02-25T17:20:18;43.40;;;24.23;;
66607;SDS011;53462;39.616;8.824;2023-02-25T17:22:47;30.00;;;13.02;;
66607;SDS011;53462;39.616;8.824;2023-02-25T17:25:15;24.00;;;9.55;;
66607;SDS011;53462;39.616;8.824;2023-02-25T17:27:43;23.38;;;10.73;;
66607;SDS011;53462;39.616;8.824;2023-02-25T17:33:01;37.63;;;16.45;;
66607;SDS011;53462;39.616;8.824;2023-02-25T17:35:28;27.92;;;14.38;;
66607;SDS011;53462;39.616;8.824;2023-02-25T17:37:55;42.72;;;21.52;;
66607;SDS011;53462;39.616;8.824;2023-02-25T17:40:25;37.00;;;18.08;;
66607;SDS011;53462;39.616;8.824;2023-02-25T17:43:15;55.38;;;26.40;;
66607;SDS011;53462;39.616;8.824;2023-02-25T17:48:28;37.30;;;19.98;;
66607;SDS011;53462;39.616;8.824;2023-02-25T17:51:00;41.92;;;23.63;;
66607;SDS011;53462;39.616;8.824;2023-02-25T17:56:18;46.05;;;23.80;;
66607;SDS011;53462;39.616;8.824;2023-02-25T17:58:50;34.72;;;17.52;;
66607;SDS011;53462;39.616;8.824;2023-02-25T18:01:19;40.92;;;21.05;;
66607;SDS011;53462;39.616;8.824;2023-02-25T18:03:50;43.67;;;20.92;;
66607;SDS011;53462;39.616;8.824;2023-02-25T18:06:30;36.60;;;20.88;;
66607;SDS011;53462;39.616;8.824;2023-02-25T18:08:56;48.17;;;28.13;;
66607;SDS011;53462;39.616;8.824;2023-02-25T18:17:24;41.60;;;21.20;;
66607;SDS011;53462;39.616;8.824;2023-02-25T18:19:56;44.35;;;23.30;;
66607;SDS011;53462;39.616;8.824;2023-02-25T18:22:35;42.40;;;22.38;;
66607;SDS011;53462;39.616;8.824;2023-02-25T18:28:00;28.23;;;12.07;;
66607;SDS011;53462;39.616;8.824;2023-02-25T18:30:28;28.17;;;11.70;;
66607;SDS011;53462;39.616;8.824;2023-02-25T18:32:55;16.80;;;6.40;;
66607;SDS011;53462;39.616;8.824;2023-02-25T18:35:23;19.52;;;6.80;;
66607;SDS011;53462;39.616;8.824;2023-02-25T18:37:53;14.68;;;4.88;;
66607;SDS011;53462;39.616;8.824;2023-02-25T18:40:22;16.02;;;6.40;;
66607;SDS011;53462;39.616;8.824;2023-02-25T18:42:52;21.63;;;8.25;;
66607;SDS011;53462;39.616;8.824;2023-02-25T18:45:19;15.68;;;4.43;;
66607;SDS011;53462;39.616;8.824;2023-02-25T18:47:47;16.63;;;7.05;;
66607;SDS011;53462;39.616;8.824;2023-02-25T18:50:13;13.07;;;5.78;;
66607;SDS011;53462;39.616;8.824;2023-02-25T18:52:40;12.15;;;3.42;;
66607;SDS011;53462;39.616;8.824;2023-02-25T18:55:07;10.48;;;2.72;;
66607;SDS011;53462;39.616;8.824;2023-02-25T18:57:38;10.80;;;3.42;;
66607;SDS011;53462;39.616;8.824;2023-02-25T19:00:06;7.75;;;3.33;;
66607;SDS011;53462;39.616;8.824;2023-02-25T19:02:33;6.28;;;2.38;;
66607;SDS011;53462;39.616;8.824;2023-02-25T19:05:03;4.45;;;2.20;;
66607;SDS011;53462;39.616;8.824;2023-02-25T19:07:32;9.52;;;3.20;;
66607;SDS011;53462;39.616;8.824;2023-02-25T19:09:58;8.15;;;2.30;;
66607;SDS011;53462;39.616;8.824;2023-02-25T19:12:26;8.05;;;2.50;;